sensor_id;sensor_type;location;lat;lon;timestamp;P1;durP1;ratioP1;P2;durP2;ratioP2
9370;SDS011;4725;48.384;8.984;2023-03-19T00:01:42;2.60;;;1.70;;
9370;SDS011;4725;48.384;8.984;2023-03-19T00:04:08;5.63;;;2.13;;
9370;SDS011;4725;48.384;8.984;2023-03-19T00:06:35;1.97;;;1.67;;
9370;SDS011;4725;48.384;8.984;2023-03-19T00:09:04;4.37;;;1.70;;
9370;SDS011;4725;48.384;8.984;2023-03-19T00:11:31;6.03;;;1.77;;
9370;SDS011;4725;48.384;8.984;2023-03-19T00:13:58;1.80;;;1.30;;
9370;SDS011;4725;48.384;8.984;2023-03-19T00:16:25;3.60;;;1.60;;
9370;SDS011;4725;48.384;8.984;2023-03-19T00:18:52;8.33;;;2.30;;
9370;SDS011;4725;48.384;8.984;2023-03-19T00:21:19;2.17;;;1.60;;
9370;SDS011;4725;48.384;8.984;2023-03-19T00:23:46;3.77;;;1.80;;
9370;SDS011;4725;48.384;8.984;2023-03-19T00:26:14;1.90;;;1.30;;
9370;SDS011;4725;48.384;8.984;2023-03-19T00:28:41;3.60;;;1.73;;
9370;SDS011;4725;48.384;8.984;2023-03-19T00:31:08;2.33;;;1.77;;
9370;SDS011;4725;48.384;8.984;2023-03-19T00:33:36;3.80;;;1.70;;
9370;SDS011;4725;48.384;8.984;2023-03-19T00:36:04;3.10;;;1.90;;
9370;SDS011;4725;48.384;8.984;2023-03-19T00:38:32;3.47;;;2.20;;
9370;SDS011;4725;48.384;8.984;2023-03-19T00:40:59;5.17;;;1.90;;
9370;SDS011;4725;48.384;8.984;2023-03-19T00:43:28;3.40;;;2.13;;
9370;SDS011;4725;48.384;8.984;2023-03-19T00:45:55;3.87;;;2.07;;
9370;SDS011;4725;48.384;8.984;2023-03-19T00:48:22;5.37;;;2.33;;
9370;SDS011;4725;48.384;8.984;2023-03-19T00:50:49;6.00;;;2.43;;
9370;SDS011;4725;48.384;8.984;2023-03-19T00:53:16;4.07;;;2.53;;
9370;SDS011;4725;48.384;8.984;2023-03-19T00:55:43;5.00;;;3.20;;
9370;SDS011;4725;48.384;8.984;2023-03-19T00:58:10;7.07;;;3.10;;
9370;SDS011;4725;48.384;8.984;2023-03-19T01:00:39;4.87;;;2.93;;
9370;SDS011;4725;48.384;8.984;2023-03-19T01:03:06;4.43;;;3.03;;
9370;SDS011;4725;48.384;8.984;2023-03-19T01:05:33;5.97;;;3.00;;
9370;SDS011;4725;48.384;8.984;2023-03-19T01:08:00;3.90;;;2.73;;
9370;SDS011;4725;48.384;8.984;2023-03-19T01:10:27;5.30;;;3.47;;
9370;SDS011;4725;48.384;8.984;2023-03-19T01:12:55;4.90;;;2.83;;
9370;SDS011;4725;48.384;8.984;2023-03-19T01:15:22;4.37;;;2.83;;
9370;SDS011;4725;48.384;8.984;2023-03-19T01:17:50;5.77;;;2.83;;
9370;SDS011;4725;48.384;8.984;2023-03-19T01:20:17;7.77;;;3.17;;
9370;SDS011;4725;48.384;8.984;2023-03-19T01:22:48;6.20;;;3.13;;
9370;SDS011;4725;48.384;8.984;2023-03-19T01:25:15;4.50;;;3.07;;
9370;SDS011;4725;48.384;8.984;2023-03-19T01:27:42;5.07;;;2.97;;
9370;SDS011;4725;48.384;8.984;2023-03-19T01:30:10;9.73;;;2.90;;
9370;SDS011;4725;48.384;8.984;2023-03-19T01:32:37;7.50;;;3.10;;
9370;SDS011;4725;48.384;8.984;2023-03-19T01:35:06;6.27;;;2.97;;
9370;SDS011;4725;48.384;8.984;2023-03-19T01:37:33;6.73;;;2.90;;
9370;SDS011;4725;48.384;8.984;2023-03-19T01:40:01;6.43;;;2.97;;
9370;SDS011;4725;48.384;8.984;2023-03-19T01:42:28;4.40;;;2.37;;
9370;SDS011;4725;48.384;8.984;2023-03-19T01:44:55;6.80;;;2.80;;
9370;SDS011;4725;48.384;8.984;2023-03-19T01:47:24;3.67;;;2.50;;
9370;SDS011;4725;48.384;8.984;2023-03-19T01:49:56;5.43;;;2.80;;
9370;SDS011;4725;48.384;8.984;2023-03-19T01:52:26;4.27;;;3.30;;
9370;SDS011;4725;48.384;8.984;2023-03-19T01:54:57;12.90;;;2.60;;
9370;SDS011;4725;48.384;8.984;2023-03-19T01:57:26;4.27;;;2.43;;
9370;SDS011;4725;48.384;8.984;2023-03-19T01:59:55;3.70;;;2.37;;
9370;SDS011;4725;48.384;8.984;2023-03-19T02:02:26;2.30;;;2.07;;
9370;SDS011;4725;48.384;8.984;2023-03-19T02:04:55;4.90;;;2.30;;
9370;SDS011;4725;48.384;8.984;2023-03-19T02:07:27;3.60;;;2.27;;
9370;SDS011;4725;48.384;8.984;2023-03-19T02:09:54;4.83;;;2.70;;
9370;SDS011;4725;48.384;8.984;2023-03-19T02:12:22;5.57;;;2.67;;
9370;SDS011;4725;48.384;8.984;2023-03-19T02:14:49;4.00;;;2.57;;
9370;SDS011;4725;48.384;8.984;2023-03-19T02:17:16;5.37;;;2.23;;
9370;SDS011;4725;48.384;8.984;2023-03-19T02:19:46;4.57;;;2.70;;
9370;SDS011;4725;48.384;8.984;2023-03-19T02:22:20;6.10;;;2.53;;
9370;SDS011;4725;48.384;8.984;2023-03-19T02:24:50;6.10;;;2.70;;
9370;SDS011;4725;48.384;8.984;2023-03-19T02:27:23;5.90;;;2.60;;
9370;SDS011;4725;48.384;8.984;2023-03-19T02:29:50;3.97;;;2.50;;
9370;SDS011;4725;48.384;8.984;2023-03-19T02:32:17;3.97;;;2.77;;
9370;SDS011;4725;48.384;8.984;2023-03-19T02:34:44;3.87;;;2.27;;
9370;SDS011;4725;48.384;8.984;2023-03-19T02:37:12;3.87;;;2.50;;
9370;SDS011;4725;48.384;8.984;2023-03-19T02:39:47;6.50;;;2.57;;
9370;SDS011;4725;48.384;8.984;2023-03-19T02:42:17;4.73;;;3.47;;
9370;SDS011;4725;48.384;8.984;2023-03-19T02:44:48;3.77;;;2.90;;
9370;SDS011;4725;48.384;8.984;2023-03-19T02:47:14;4.20;;;2.33;;
9370;SDS011;4725;48.384;8.984;2023-03-19T02:49:41;5.70;;;2.50;;
9370;SDS011;4725;48.384;8.984;2023-03-19T02:52:09;3.93;;;2.20;;
9370;SDS011;4725;48.384;8.984;2023-03-19T02:54:36;5.30;;;2.47;;
9370;SDS011;4725;48.384;8.984;2023-03-19T02:57:03;3.67;;;2.50;;
9370;SDS011;4725;48.384;8.984;2023-03-19T02:59:31;4.60;;;2.60;;
9370;SDS011;4725;48.384;8.984;2023-03-19T03:01:59;5.30;;;2.83;;
9370;SDS011;4725;48.384;8.984;2023-03-19T03:04:26;4.57;;;2.43;;
9370;SDS011;4725;48.384;8.984;2023-03-19T03:06:53;6.70;;;2.60;;
9370;SDS011;4725;48.384;8.984;2023-03-19T03:09:23;3.90;;;2.57;;
9370;SDS011;4725;48.384;8.984;2023-03-19T03:11:51;4.33;;;2.57;;
9370;SDS011;4725;48.384;8.984;2023-03-19T03:14:20;4.27;;;2.63;;
9370;SDS011;4725;48.384;8.984;2023-03-19T03:16:47;11.37;;;3.10;;
9370;SDS011;4725;48.384;8.984;2023-03-19T03:19:15;8.80;;;3.50;;
9370;SDS011;4725;48.384;8.984;2023-03-19T03:21:42;3.67;;;2.70;;
9370;SDS011;4725;48.384;8.984;2023-03-19T03:24:09;5.83;;;2.87;;
9370;SDS011;4725;48.384;8.984;2023-03-19T03:26:36;6.37;;;2.67;;
9370;SDS011;4725;48.384;8.984;2023-03-19T03:29:03;3.00;;;2.60;;
9370;SDS011;4725;48.384;8.984;2023-03-19T03:31:31;6.53;;;2.97;;
9370;SDS011;4725;48.384;8.984;2023-03-19T03:33:58;6.07;;;3.20;;
9370;SDS011;4725;48.384;8.984;2023-03-19T03:36:27;6.93;;;2.60;;
9370;SDS011;4725;48.384;8.984;2023-03-19T03:38:54;6.57;;;3.13;;
9370;SDS011;4725;48.384;8.984;2023-03-19T03:41:21;4.97;;;2.73;;
9370;SDS011;4725;48.384;8.984;2023-03-19T03:43:48;4.10;;;2.83;;
9370;SDS011;4725;48.384;8.984;2023-03-19T03:46:15;4.70;;;2.70;;
9370;SDS011;4725;48.384;8.984;2023-03-19T03:48:42;3.50;;;2.73;;
9370;SDS011;4725;48.384;8.984;2023-03-19T03:51:09;4.43;;;2.80;;
9370;SDS011;4725;48.384;8.984;2023-03-19T03:53:37;5.43;;;2.70;;
9370;SDS011;4725;48.384;8.984;2023-03-19T03:56:04;4.87;;;2.60;;
9370;SDS011;4725;48.384;8.984;2023-03-19T03:58:32;3.77;;;2.47;;
9370;SDS011;4725;48.384;8.984;2023-03-19T04:00:59;5.60;;;2.70;;
9370;SDS011;4725;48.384;8.984;2023-03-19T04:03:25;7.50;;;2.80;;
9370;SDS011;4725;48.384;8.984;2023-03-19T04:05:52;5.33;;;2.80;;
9370;SDS011;4725;48.384;8.984;2023-03-19T04:08:19;4.50;;;2.50;;
9370;SDS011;4725;48.384;8.984;2023-03-19T04:10:48;4.10;;;2.80;;
9370;SDS011;4725;48.384;8.984;2023-03-19T04:13:15;3.47;;;2.47;;
9370;SDS011;4725;48.384;8.984;2023-03-19T04:15:42;2.70;;;2.37;;
9370;SDS011;4725;48.384;8.984;2023-03-19T04:18:10;4.80;;;2.63;;
9370;SDS011;4725;48.384;8.984;2023-03-19T04:20:37;3.07;;;2.23;;
9370;SDS011;4725;48.384;8.984;2023-03-19T04:23:05;3.83;;;2.50;;
9370;SDS011;4725;48.384;8.984;2023-03-19T04:25:32;3.70;;;2.40;;
9370;SDS011;4725;48.384;8.984;2023-03-19T04:28:00;2.97;;;2.30;;
9370;SDS011;4725;48.384;8.984;2023-03-19T04:30:27;5.80;;;2.37;;
9370;SDS011;4725;48.384;8.984;2023-03-19T04:32:54;3.50;;;2.30;;
9370;SDS011;4725;48.384;8.984;2023-03-19T04:35:21;2.53;;;2.03;;
9370;SDS011;4725;48.384;8.984;2023-03-19T04:37:48;3.97;;;2.10;;
9370;SDS011;4725;48.384;8.984;2023-03-19T04:40:15;6.37;;;2.90;;
9370;SDS011;4725;48.384;8.984;2023-03-19T04:42:43;2.00;;;1.77;;
9370;SDS011;4725;48.384;8.984;2023-03-19T04:45:12;1.80;;;1.70;;
9370;SDS011;4725;48.384;8.984;2023-03-19T04:47:38;4.00;;;1.90;;
9370;SDS011;4725;48.384;8.984;2023-03-19T04:50:07;3.67;;;1.77;;
9370;SDS011;4725;48.384;8.984;2023-03-19T04:52:35;4.97;;;2.03;;
9370;SDS011;4725;48.384;8.984;2023-03-19T04:55:03;3.27;;;2.07;;
9370;SDS011;4725;48.384;8.984;2023-03-19T04:57:30;4.13;;;1.83;;
9370;SDS011;4725;48.384;8.984;2023-03-19T04:59:57;4.90;;;1.60;;
9370;SDS011;4725;48.384;8.984;2023-03-19T05:02:26;4.87;;;2.00;;
9370;SDS011;4725;48.384;8.984;2023-03-19T05:04:53;2.67;;;1.90;;
9370;SDS011;4725;48.384;8.984;2023-03-19T05:07:20;4.17;;;1.80;;
9370;SDS011;4725;48.384;8.984;2023-03-19T05:09:47;4.60;;;1.80;;
9370;SDS011;4725;48.384;8.984;2023-03-19T05:12:14;3.17;;;1.90;;
9370;SDS011;4725;48.384;8.984;2023-03-19T05:14:41;5.10;;;1.97;;
9370;SDS011;4725;48.384;8.984;2023-03-19T05:17:09;2.23;;;1.63;;
9370;SDS011;4725;48.384;8.984;2023-03-19T05:19:37;2.70;;;1.67;;
9370;SDS011;4725;48.384;8.984;2023-03-19T05:22:04;3.63;;;1.50;;
9370;SDS011;4725;48.384;8.984;2023-03-19T05:24:31;1.93;;;1.60;;
9370;SDS011;4725;48.384;8.984;2023-03-19T05:26:58;3.60;;;1.80;;
9370;SDS011;4725;48.384;8.984;2023-03-19T05:29:25;3.80;;;2.00;;
9370;SDS011;4725;48.384;8.984;2023-03-19T05:31:52;4.83;;;1.73;;
9370;SDS011;4725;48.384;8.984;2023-03-19T05:34:19;3.27;;;2.00;;
9370;SDS011;4725;48.384;8.984;2023-03-19T05:36:48;3.23;;;1.57;;
9370;SDS011;4725;48.384;8.984;2023-03-19T05:39:15;2.90;;;1.80;;
9370;SDS011;4725;48.384;8.984;2023-03-19T05:41:43;4.63;;;2.00;;
9370;SDS011;4725;48.384;8.984;2023-03-19T05:44:10;2.10;;;1.43;;
9370;SDS011;4725;48.384;8.984;2023-03-19T05:46:37;2.07;;;1.57;;
9370;SDS011;4725;48.384;8.984;2023-03-19T05:49:05;3.70;;;1.30;;
9370;SDS011;4725;48.384;8.984;2023-03-19T05:51:32;2.90;;;1.37;;
9370;SDS011;4725;48.384;8.984;2023-03-19T05:54:01;2.70;;;1.40;;
9370;SDS011;4725;48.384;8.984;2023-03-19T05:56:28;3.23;;;1.30;;
9370;SDS011;4725;48.384;8.984;2023-03-19T05:58:55;1.90;;;1.57;;
9370;SDS011;4725;48.384;8.984;2023-03-19T06:01:22;5.23;;;1.40;;
9370;SDS011;4725;48.384;8.984;2023-03-19T06:03:49;1.47;;;1.33;;
9370;SDS011;4725;48.384;8.984;2023-03-19T06:06:16;2.73;;;1.20;;
9370;SDS011;4725;48.384;8.984;2023-03-19T06:08:43;1.70;;;1.03;;
9370;SDS011;4725;48.384;8.984;2023-03-19T06:11:12;2.13;;;1.40;;
9370;SDS011;4725;48.384;8.984;2023-03-19T06:13:39;2.03;;;1.20;;
9370;SDS011;4725;48.384;8.984;2023-03-19T06:16:07;2.13;;;1.20;;
9370;SDS011;4725;48.384;8.984;2023-03-19T06:18:34;1.60;;;1.07;;
9370;SDS011;4725;48.384;8.984;2023-03-19T06:21:02;2.77;;;1.30;;
9370;SDS011;4725;48.384;8.984;2023-03-19T06:23:29;2.53;;;1.33;;
9370;SDS011;4725;48.384;8.984;2023-03-19T06:25:56;4.27;;;1.20;;
9370;SDS011;4725;48.384;8.984;2023-03-19T06:28:25;1.07;;;0.97;;
9370;SDS011;4725;48.384;8.984;2023-03-19T06:30:52;2.23;;;1.20;;
9370;SDS011;4725;48.384;8.984;2023-03-19T06:33:19;2.17;;;1.03;;
9370;SDS011;4725;48.384;8.984;2023-03-19T06:35:47;2.03;;;1.17;;
9370;SDS011;4725;48.384;8.984;2023-03-19T06:38:14;2.07;;;1.23;;
9370;SDS011;4725;48.384;8.984;2023-03-19T06:40:41;1.30;;;1.00;;
9370;SDS011;4725;48.384;8.984;2023-03-19T06:43:08;3.17;;;1.30;;
9370;SDS011;4725;48.384;8.984;2023-03-19T06:45:37;2.40;;;1.20;;
9370;SDS011;4725;48.384;8.984;2023-03-19T06:48:04;2.23;;;1.40;;
9370;SDS011;4725;48.384;8.984;2023-03-19T06:50:31;1.33;;;1.20;;
9370;SDS011;4725;48.384;8.984;2023-03-19T06:52:58;1.77;;;1.23;;
9370;SDS011;4725;48.384;8.984;2023-03-19T06:55:26;3.87;;;1.30;;
9370;SDS011;4725;48.384;8.984;2023-03-19T06:57:55;3.73;;;1.30;;
9370;SDS011;4725;48.384;8.984;2023-03-19T07:00:22;2.53;;;1.50;;
9370;SDS011;4725;48.384;8.984;2023-03-19T07:02:51;4.30;;;1.30;;
9370;SDS011;4725;48.384;8.984;2023-03-19T07:05:18;3.00;;;1.33;;
9370;SDS011;4725;48.384;8.984;2023-03-19T07:07:44;2.07;;;1.10;;
9370;SDS011;4725;48.384;8.984;2023-03-19T07:10:11;2.13;;;1.60;;
9370;SDS011;4725;48.384;8.984;2023-03-19T07:12:38;2.43;;;1.43;;
9370;SDS011;4725;48.384;8.984;2023-03-19T07:15:06;1.80;;;1.30;;
9370;SDS011;4725;48.384;8.984;2023-03-19T07:17:34;3.50;;;1.63;;
9370;SDS011;4725;48.384;8.984;2023-03-19T07:20:02;1.30;;;1.10;;
9370;SDS011;4725;48.384;8.984;2023-03-19T07:22:30;1.60;;;1.23;;
9370;SDS011;4725;48.384;8.984;2023-03-19T07:24:57;2.43;;;1.30;;
9370;SDS011;4725;48.384;8.984;2023-03-19T07:27:24;1.97;;;1.23;;
9370;SDS011;4725;48.384;8.984;2023-03-19T07:29:51;3.27;;;1.47;;
9370;SDS011;4725;48.384;8.984;2023-03-19T07:32:19;3.77;;;1.30;;
9370;SDS011;4725;48.384;8.984;2023-03-19T07:34:47;3.40;;;1.43;;
9370;SDS011;4725;48.384;8.984;2023-03-19T07:37:16;2.17;;;1.27;;
9370;SDS011;4725;48.384;8.984;2023-03-19T07:39:43;2.67;;;1.30;;
9370;SDS011;4725;48.384;8.984;2023-03-19T07:42:10;3.17;;;1.50;;
9370;SDS011;4725;48.384;8.984;2023-03-19T07:44:37;4.27;;;2.10;;
9370;SDS011;4725;48.384;8.984;2023-03-19T07:47:04;1.83;;;1.30;;
9370;SDS011;4725;48.384;8.984;2023-03-19T07:49:31;2.20;;;1.20;;
9370;SDS011;4725;48.384;8.984;2023-03-19T07:51:58;2.50;;;1.37;;
9370;SDS011;4725;48.384;8.984;2023-03-19T07:54:26;1.63;;;1.20;;
9370;SDS011;4725;48.384;8.984;2023-03-19T07:56:54;1.53;;;1.30;;
9370;SDS011;4725;48.384;8.984;2023-03-19T07:59:21;1.57;;;1.20;;
9370;SDS011;4725;48.384;8.984;2023-03-19T08:01:48;3.67;;;1.40;;
9370;SDS011;4725;48.384;8.984;2023-03-19T08:04:15;1.63;;;1.23;;
9370;SDS011;4725;48.384;8.984;2023-03-19T08:06:42;2.10;;;1.47;;
9370;SDS011;4725;48.384;8.984;2023-03-19T08:09:09;1.67;;;1.30;;
9370;SDS011;4725;48.384;8.984;2023-03-19T08:11:38;1.97;;;1.50;;
9370;SDS011;4725;48.384;8.984;2023-03-19T08:14:05;3.25;;;1.40;;
9370;SDS011;4725;48.384;8.984;2023-03-19T08:16:32;2.70;;;1.27;;
9370;SDS011;4725;48.384;8.984;2023-03-19T08:18:59;3.60;;;1.30;;
9370;SDS011;4725;48.384;8.984;2023-03-19T08:21:26;3.22;;;1.85;;
9370;SDS011;4725;48.384;8.984;2023-03-19T08:23:53;4.05;;;1.20;;
9370;SDS011;4725;48.384;8.984;2023-03-19T08:26:20;1.85;;;1.17;;
9370;SDS011;4725;48.384;8.984;2023-03-19T08:28:49;3.35;;;1.27;;
9370;SDS011;4725;48.384;8.984;2023-03-19T08:31:16;1.65;;;1.25;;
9370;SDS011;4725;48.384;8.984;2023-03-19T08:33:43;1.73;;;1.30;;
9370;SDS011;4725;48.384;8.984;2023-03-19T08:36:11;1.73;;;1.20;;
9370;SDS011;4725;48.384;8.984;2023-03-19T08:38:39;2.92;;;1.40;;
9370;SDS011;4725;48.384;8.984;2023-03-19T08:41:06;2.35;;;1.30;;
9370;SDS011;4725;48.384;8.984;2023-03-19T08:43:34;2.63;;;1.30;;
9370;SDS011;4725;48.384;8.984;2023-03-19T08:46:03;3.03;;;1.60;;
9370;SDS011;4725;48.384;8.984;2023-03-19T08:48:31;4.87;;;1.53;;
9370;SDS011;4725;48.384;8.984;2023-03-19T08:50:59;1.30;;;1.17;;
9370;SDS011;4725;48.384;8.984;2023-03-19T08:53:28;3.53;;;1.45;;
9370;SDS011;4725;48.384;8.984;2023-03-19T08:55:56;3.70;;;1.40;;
9370;SDS011;4725;48.384;8.984;2023-03-19T08:58:24;1.47;;;1.33;;
9370;SDS011;4725;48.384;8.984;2023-03-19T09:00:52;2.92;;;1.55;;
9370;SDS011;4725;48.384;8.984;2023-03-19T09:03:21;3.17;;;1.70;;
9370;SDS011;4725;48.384;8.984;2023-03-19T09:05:48;2.05;;;1.65;;
9370;SDS011;4725;48.384;8.984;2023-03-19T09:08:15;3.50;;;1.50;;
9370;SDS011;4725;48.384;8.984;2023-03-19T09:10:42;3.03;;;1.30;;
9370;SDS011;4725;48.384;8.984;2023-03-19T09:13:09;4.30;;;1.30;;
9370;SDS011;4725;48.384;8.984;2023-03-19T09:15:36;3.53;;;1.45;;
9370;SDS011;4725;48.384;8.984;2023-03-19T09:18:03;4.18;;;1.60;;
9370;SDS011;4725;48.384;8.984;2023-03-19T09:20:32;7.70;;;1.85;;
9370;SDS011;4725;48.384;8.984;2023-03-19T09:22:59;2.10;;;1.42;;
9370;SDS011;4725;48.384;8.984;2023-03-19T09:25:26;7.68;;;1.90;;
9370;SDS011;4725;48.384;8.984;2023-03-19T09:27:53;1.63;;;1.20;;
9370;SDS011;4725;48.384;8.984;2023-03-19T09:30:20;1.95;;;1.75;;
9370;SDS011;4725;48.384;8.984;2023-03-19T09:32:47;3.03;;;1.67;;
9370;SDS011;4725;48.384;8.984;2023-03-19T09:35:14;2.53;;;1.70;;
9370;SDS011;4725;48.384;8.984;2023-03-19T09:37:42;3.58;;;1.75;;
9370;SDS011;4725;48.384;8.984;2023-03-19T09:40:10;2.42;;;1.50;;
9370;SDS011;4725;48.384;8.984;2023-03-19T09:42:50;2.60;;;1.48;;
9370;SDS011;4725;48.384;8.984;2023-03-19T09:45:23;5.13;;;1.80;;
9370;SDS011;4725;48.384;8.984;2023-03-19T09:47:54;3.47;;;1.70;;
9370;SDS011;4725;48.384;8.984;2023-03-19T09:50:28;3.88;;;1.33;;
9370;SDS011;4725;48.384;8.984;2023-03-19T09:53:01;2.40;;;1.60;;
9370;SDS011;4725;48.384;8.984;2023-03-19T09:55:34;3.47;;;2.00;;
9370;SDS011;4725;48.384;8.984;2023-03-19T09:58:08;5.18;;;2.20;;
9370;SDS011;4725;48.384;8.984;2023-03-19T10:00:39;2.88;;;1.98;;
9370;SDS011;4725;48.384;8.984;2023-03-19T10:03:10;3.42;;;2.00;;
9370;SDS011;4725;48.384;8.984;2023-03-19T10:05:50;5.47;;;1.73;;
9370;SDS011;4725;48.384;8.984;2023-03-19T10:08:39;3.47;;;1.70;;
9370;SDS011;4725;48.384;8.984;2023-03-19T10:11:22;3.95;;;2.20;;
9370;SDS011;4725;48.384;8.984;2023-03-19T10:13:59;3.30;;;1.52;;
9370;SDS011;4725;48.384;8.984;2023-03-19T10:16:41;2.00;;;1.60;;
9370;SDS011;4725;48.384;8.984;2023-03-19T10:19:11;3.63;;;1.75;;
9370;SDS011;4725;48.384;8.984;2023-03-19T10:21:44;2.60;;;1.40;;
9370;SDS011;4725;48.384;8.984;2023-03-19T10:24:20;3.75;;;2.00;;
9370;SDS011;4725;48.384;8.984;2023-03-19T10:26:48;3.75;;;1.85;;
9370;SDS011;4725;48.384;8.984;2023-03-19T10:29:22;3.45;;;1.70;;
9370;SDS011;4725;48.384;8.984;2023-03-19T10:31:51;7.15;;;2.10;;
9370;SDS011;4725;48.384;8.984;2023-03-19T10:34:27;2.97;;;2.00;;
9370;SDS011;4725;48.384;8.984;2023-03-19T10:37:00;3.70;;;1.70;;
9370;SDS011;4725;48.384;8.984;2023-03-19T10:39:31;3.08;;;1.60;;
9370;SDS011;4725;48.384;8.984;2023-03-19T10:42:04;4.22;;;1.92;;
9370;SDS011;4725;48.384;8.984;2023-03-19T10:44:41;2.50;;;1.70;;
9370;SDS011;4725;48.384;8.984;2023-03-19T10:47:13;2.67;;;1.73;;
9370;SDS011;4725;48.384;8.984;2023-03-19T10:49:41;6.55;;;2.08;;
9370;SDS011;4725;48.384;8.984;2023-03-19T10:52:15;2.28;;;1.55;;
9370;SDS011;4725;48.384;8.984;2023-03-19T10:54:47;3.67;;;1.85;;
9370;SDS011;4725;48.384;8.984;2023-03-19T10:57:20;2.38;;;1.60;;
9370;SDS011;4725;48.384;8.984;2023-03-19T10:59:50;4.13;;;1.70;;
9370;SDS011;4725;48.384;8.984;2023-03-19T11:02:18;5.80;;;2.15;;
9370;SDS011;4725;48.384;8.984;2023-03-19T11:04:47;3.35;;;1.50;;
9370;SDS011;4725;48.384;8.984;2023-03-19T11:07:16;1.90;;;1.80;;
9370;SDS011;4725;48.384;8.984;2023-03-19T11:09:47;3.38;;;2.03;;
9370;SDS011;4725;48.384;8.984;2023-03-19T11:12:16;6.57;;;1.70;;
9370;SDS011;4725;48.384;8.984;2023-03-19T11:14:46;3.28;;;1.80;;
9370;SDS011;4725;48.384;8.984;2023-03-19T11:17:16;6.28;;;2.08;;
9370;SDS011;4725;48.384;8.984;2023-03-19T11:19:48;4.07;;;1.52;;
9370;SDS011;4725;48.384;8.984;2023-03-19T11:22:20;2.85;;;1.95;;
9370;SDS011;4725;48.384;8.984;2023-03-19T11:24:51;3.05;;;2.00;;
9370;SDS011;4725;48.384;8.984;2023-03-19T11:27:25;3.95;;;1.95;;
9370;SDS011;4725;48.384;8.984;2023-03-19T11:29:53;3.22;;;2.03;;
9370;SDS011;4725;48.384;8.984;2023-03-19T11:32:38;5.60;;;1.95;;
9370;SDS011;4725;48.384;8.984;2023-03-19T11:35:24;5.68;;;2.60;;
9370;SDS011;4725;48.384;8.984;2023-03-19T11:37:57;3.33;;;1.90;;
9370;SDS011;4725;48.384;8.984;2023-03-19T11:40:30;4.40;;;1.85;;
9370;SDS011;4725;48.384;8.984;2023-03-19T11:43:05;3.25;;;1.90;;
9370;SDS011;4725;48.384;8.984;2023-03-19T11:45:55;4.53;;;1.58;;
9370;SDS011;4725;48.384;8.984;2023-03-19T11:48:30;4.18;;;1.98;;
9370;SDS011;4725;48.384;8.984;2023-03-19T11:51:08;3.63;;;1.83;;
9370;SDS011;4725;48.384;8.984;2023-03-19T11:53:41;2.95;;;1.90;;
9370;SDS011;4725;48.384;8.984;2023-03-19T11:56:20;5.22;;;1.98;;
9370;SDS011;4725;48.384;8.984;2023-03-19T11:59:02;3.00;;;1.65;;
9370;SDS011;4725;48.384;8.984;2023-03-19T12:01:52;4.30;;;2.03;;
9370;SDS011;4725;48.384;8.984;2023-03-19T12:04:48;5.75;;;2.58;;
9370;SDS011;4725;48.384;8.984;2023-03-19T12:07:36;4.90;;;2.10;;
9370;SDS011;4725;48.384;8.984;2023-03-19T12:10:20;2.22;;;1.83;;
9370;SDS011;4725;48.384;8.984;2023-03-19T12:12:57;3.35;;;2.00;;
9370;SDS011;4725;48.384;8.984;2023-03-19T12:15:34;9.00;;;2.38;;
9370;SDS011;4725;48.384;8.984;2023-03-19T12:18:06;4.57;;;2.13;;
9370;SDS011;4725;48.384;8.984;2023-03-19T12:20:45;5.05;;;1.77;;
9370;SDS011;4725;48.384;8.984;2023-03-19T12:26:09;1.67;;;1.58;;
9370;SDS011;4725;48.384;8.984;2023-03-19T12:28:45;3.17;;;1.95;;
9370;SDS011;4725;48.384;8.984;2023-03-19T12:31:27;6.25;;;1.95;;
9370;SDS011;4725;48.384;8.984;2023-03-19T12:34:09;3.42;;;2.20;;
9370;SDS011;4725;48.384;8.984;2023-03-19T12:36:47;6.25;;;2.33;;
9370;SDS011;4725;48.384;8.984;2023-03-19T12:39:20;5.43;;;2.08;;
9370;SDS011;4725;48.384;8.984;2023-03-19T12:41:51;3.75;;;2.08;;
9370;SDS011;4725;48.384;8.984;2023-03-19T12:44:24;5.57;;;3.15;;
9370;SDS011;4725;48.384;8.984;2023-03-19T12:46:55;3.75;;;2.70;;
9370;SDS011;4725;48.384;8.984;2023-03-19T12:49:28;4.43;;;1.95;;
9370;SDS011;4725;48.384;8.984;2023-03-19T12:52:01;3.28;;;1.75;;
9370;SDS011;4725;48.384;8.984;2023-03-19T12:54:34;3.58;;;2.35;;
9370;SDS011;4725;48.384;8.984;2023-03-19T12:57:06;4.05;;;2.17;;
9370;SDS011;4725;48.384;8.984;2023-03-19T12:59:39;2.60;;;2.10;;
9370;SDS011;4725;48.384;8.984;2023-03-19T13:02:11;3.90;;;2.00;;
9370;SDS011;4725;48.384;8.984;2023-03-19T13:04:46;5.45;;;2.83;;
9370;SDS011;4725;48.384;8.984;2023-03-19T13:07:19;4.38;;;2.45;;
9370;SDS011;4725;48.384;8.984;2023-03-19T13:09:52;3.05;;;2.10;;
9370;SDS011;4725;48.384;8.984;2023-03-19T13:12:24;8.95;;;2.53;;
9370;SDS011;4725;48.384;8.984;2023-03-19T13:14:56;5.05;;;1.88;;
9370;SDS011;4725;48.384;8.984;2023-03-19T13:17:28;4.28;;;2.28;;
9370;SDS011;4725;48.384;8.984;2023-03-19T13:20:03;3.38;;;2.38;;
9370;SDS011;4725;48.384;8.984;2023-03-19T13:22:39;7.57;;;2.55;;
9370;SDS011;4725;48.384;8.984;2023-03-19T13:25:10;5.35;;;2.30;;
9370;SDS011;4725;48.384;8.984;2023-03-19T13:27:41;3.25;;;2.30;;
9370;SDS011;4725;48.384;8.984;2023-03-19T13:30:16;4.00;;;2.40;;
9370;SDS011;4725;48.384;8.984;2023-03-19T13:32:46;3.40;;;2.30;;
9370;SDS011;4725;48.384;8.984;2023-03-19T13:35:24;6.70;;;3.07;;
9370;SDS011;4725;48.384;8.984;2023-03-19T13:37:58;0.20;;;0.20;;
9370;SDS011;4725;48.384;8.984;2023-03-19T13:40:38;0.20;;;0.20;;
9370;SDS011;4725;48.384;8.984;2023-03-19T13:43:20;0.20;;;0.20;;
9370;SDS011;4725;48.384;8.984;2023-03-19T13:46:03;0.20;;;0.20;;
9370;SDS011;4725;48.384;8.984;2023-03-19T13:48:48;0.30;;;0.30;;
9370;SDS011;4725;48.384;8.984;2023-03-19T13:51:23;0.20;;;0.20;;
9370;SDS011;4725;48.384;8.984;2023-03-19T13:54:02;0.20;;;0.20;;
9370;SDS011;4725;48.384;8.984;2023-03-19T13:56:35;0.20;;;0.20;;
9370;SDS011;4725;48.384;8.984;2023-03-19T13:59:29;0.20;;;0.20;;
9370;SDS011;4725;48.384;8.984;2023-03-19T14:02:00;0.20;;;0.20;;
9370;SDS011;4725;48.384;8.984;2023-03-19T14:04:48;0.30;;;0.30;;
9370;SDS011;4725;48.384;8.984;2023-03-19T14:07:17;0.20;;;0.20;;
9370;SDS011;4725;48.384;8.984;2023-03-19T14:09:47;0.20;;;0.20;;
9370;SDS011;4725;48.384;8.984;2023-03-19T14:12:22;0.20;;;0.20;;
9370;SDS011;4725;48.384;8.984;2023-03-19T14:14:57;0.20;;;0.20;;
9370;SDS011;4725;48.384;8.984;2023-03-19T14:17:29;0.20;;;0.20;;
9370;SDS011;4725;48.384;8.984;2023-03-19T14:19:59;0.20;;;0.20;;
9370;SDS011;4725;48.384;8.984;2023-03-19T14:22:34;0.20;;;0.20;;
9370;SDS011;4725;48.384;8.984;2023-03-19T14:25:12;0.20;;;0.20;;
9370;SDS011;4725;48.384;8.984;2023-03-19T14:27:42;0.20;;;0.20;;
9370;SDS011;4725;48.384;8.984;2023-03-19T14:30:16;0.20;;;0.20;;
9370;SDS011;4725;48.384;8.984;2023-03-19T14:32:52;0.20;;;0.20;;
9370;SDS011;4725;48.384;8.984;2023-03-19T14:35:22;0.20;;;0.20;;
9370;SDS011;4725;48.384;8.984;2023-03-19T14:37:51;0.20;;;0.20;;
9370;SDS011;4725;48.384;8.984;2023-03-19T14:40:20;0.20;;;0.20;;
9370;SDS011;4725;48.384;8.984;2023-03-19T14:42:55;0.20;;;0.20;;
9370;SDS011;4725;48.384;8.984;2023-03-19T14:45:40;0.20;;;0.20;;
9370;SDS011;4725;48.384;8.984;2023-03-19T14:48:18;0.20;;;0.20;;
9370;SDS011;4725;48.384;8.984;2023-03-19T14:51:02;0.30;;;0.30;;
9370;SDS011;4725;48.384;8.984;2023-03-19T14:53:48;0.20;;;0.20;;
9370;SDS011;4725;48.384;8.984;2023-03-19T14:56:19;0.20;;;0.20;;
9370;SDS011;4725;48.384;8.984;2023-03-19T14:58:52;1.90;;;1.80;;
9370;SDS011;4725;48.384;8.984;2023-03-19T15:01:20;0.20;;;0.20;;
9370;SDS011;4725;48.384;8.984;2023-03-19T15:03:54;0.20;;;0.20;;
9370;SDS011;4725;48.384;8.984;2023-03-19T15:06:24;0.20;;;0.20;;
9370;SDS011;4725;48.384;8.984;2023-03-19T15:08:56;0.20;;;0.20;;
9370;SDS011;4725;48.384;8.984;2023-03-19T15:11:37;0.20;;;0.20;;
9370;SDS011;4725;48.384;8.984;2023-03-19T15:14:36;0.10;;;0.10;;
9370;SDS011;4725;48.384;8.984;2023-03-19T15:17:17;0.20;;;0.20;;
9370;SDS011;4725;48.384;8.984;2023-03-19T15:19:50;0.30;;;0.30;;
9370;SDS011;4725;48.384;8.984;2023-03-19T15:22:18;0.20;;;0.20;;
9370;SDS011;4725;48.384;8.984;2023-03-19T15:24:46;0.13;;;0.13;;
9370;SDS011;4725;48.384;8.984;2023-03-19T15:27:17;0.30;;;0.30;;
9370;SDS011;4725;48.384;8.984;2023-03-19T15:29:46;0.20;;;0.20;;
9370;SDS011;4725;48.384;8.984;2023-03-19T15:32:18;0.20;;;0.20;;
9370;SDS011;4725;48.384;8.984;2023-03-19T15:34:58;0.27;;;0.27;;
9370;SDS011;4725;48.384;8.984;2023-03-19T15:37:25;0.20;;;0.20;;